Bookmark and Share
Track history (hours):
 

Toyofujimaru No.2

Last reported at 2014-Apr-23 10:33 UTC. Time now 2014-Apr-24 04:29 UTC.
Position N 34°04' E 134°56'.

Length 165 m; draft 6.5 m.

Type: Cargo ship. MMSI: 432667000.

NotesDate/timePositionNaut miles runAvg speedWind from/ knotsBaromVisibWave heightAir tempDewpointWater temp
2014-Apr-23 10:33N 34°04' E 134°56'1717.1
2014-Apr-23 09:34N 34°20' E 134°60'2019.5
2014-Apr-23 08:33N 34°32' E 135°19'4 3.9
2014-Apr-23 07:34N 34°31' E 135°23'0 0.0
2014-Apr-23 06:29N 34°31' E 135°23'0 0.0
2014-Apr-23 05:29N 34°31' E 135°23'0 0.0
2014-Apr-23 04:23N 34°31' E 135°23'0 0.0
2014-Apr-23 03:29N 34°31' E 135°23'0 0.0
2014-Apr-23 02:29N 34°31' E 135°23'0 0.0
2014-Apr-23 01:29N 34°31' E 135°23'0 0.0
2014-Apr-23 00:05N 34°31' E 135°23'0 0.0
2014-Apr-22 23:23N 34°31' E 135°23'1 0.6
2014-Apr-22 22:32N 34°31' E 135°23'7 7.0
2014-Apr-22 21:33N 34°31' E 135°15'1717.3
2014-Apr-22 20:33N 34°19' E 135°00'1414.5
2014-Apr-22 19:33N 34°04' E 134°59'172 5.9
2014-Apr-21 14:15N 34°24' E 138°25'5715.4
2014-Apr-21 10:33N 34°40' E 139°32'1818.4
2014-Apr-21 09:33N 34°57' E 139°40'1616.2
2014-Apr-21 08:33N 35°12' E 139°46'1211.5
2014-Apr-21 07:33N 35°23' E 139°42'5 4.8
2014-Apr-21 06:33N 35°28' E 139°41'0 0.0
2014-Apr-21 05:32N 35°28' E 139°41'0 0.0
2014-Apr-21 04:29N 35°28' E 139°41'0 0.0
2014-Apr-21 03:32N 35°28' E 139°41'0 0.0
2014-Apr-21 02:32N 35°28' E 139°41'0 0.0
2014-Apr-21 01:32N 35°28' E 139°41'0 0.0
2014-Apr-21 00:32N 35°28' E 139°41'0 0.0
2014-Apr-20 23:32N 35°28' E 139°41'0 0.0
2014-Apr-20 22:32N 35°28' E 139°41'0 0.0
2014-Apr-20 21:32N 35°28' E 139°41'0 0.0
2014-Apr-20 20:32N 35°28' E 139°41'0 0.0
2014-Apr-20 19:32N 35°28' E 139°41'0 0.0
2014-Apr-20 18:32N 35°28' E 139°41'0 0.0
2014-Apr-20 17:32N 35°28' E 139°41'0 0.0
2014-Apr-20 16:32N 35°28' E 139°41'0 0.0
2014-Apr-20 15:32N 35°28' E 139°41'0 0.0
2014-Apr-20 14:32N 35°28' E 139°41'0 0.0
2014-Apr-20 13:29N 35°28' E 139°41'0 0.0
2014-Apr-20 12:32N 35°28' E 139°41'0 0.0
2014-Apr-20 11:32N 35°28' E 139°41'0 0.0
2014-Apr-20 10:32N 35°28' E 139°41'0 0.1
2014-Apr-20 09:33N 35°28' E 139°41'4 4.1
2014-Apr-20 08:33N 35°26' E 139°45'1010.0
2014-Apr-20 07:33N 35°16' E 139°46'1111.3
2014-Apr-20 06:33N 35°05' E 139°45'1414.2
2014-Apr-20 05:34N 34°51' E 139°42'6716.7
2014-Apr-20 01:33N 34°25' E 138°27'  

Dump ship's entire track history

sailing weather and tide predictions

Toyofujimaru No.2 — 7JDI — position and weather